Time;durP1;ratioP1;P1;durP2;ratioP2;P2;SDS_P1;SDS_P2;PMS_P1;PMS_P2;Temp;Humidity;BMP_temperature;BMP_pressure;BME280_temperature;BME280_humidity;BME280_pressure;Samples;Min_cycle;Max_cycle;Signal;HPM_P1;HPM_P2
2021/10/04 05:38:21;;;;;;;8.18;4.30;;;;;;;;;;5228543;23;20056;-62
2021/10/04 05:40:47;;;;;;;7.53;4.00;;;;;;;;;;4936632;29;20047;-63
2021/10/04 05:43:13;;;;;;;10.13;4.10;;;;;;;;;;4937405;29;20549;-64
2021/10/04 05:45:39;;;;;;;8.57;4.50;;;;;;;;;;4935314;29;20043;-64
2021/10/04 05:48:06;;;;;;;13.70;4.45;;;;;;;;;;4934823;29;20043;-64
2021/10/04 05:50:32;;;;;;;7.93;4.10;;;;;;;;;;4934464;29;20361;-66
2021/10/04 05:52:58;;;;;;;8.65;4.32;;;;;;;;;;4935349;29;20098;-64
2021/10/04 05:55:24;;;;;;;11.20;4.40;;;;;;;;;;4935155;29;20032;-64
2021/10/04 05:57:50;;;;;;;11.40;4.90;;;;;;;;;;4935228;29;20015;-63
2021/10/04 06:00:16;;;;;;;11.25;4.63;;;;;;;;;;4935340;29;20031;-64
2021/10/04 06:02:42;;;;;;;8.02;4.10;;;;;;;;;;4934096;29;20030;-64
2021/10/04 06:05:09;;;;;;;9.43;4.88;;;;;;;;;;4933897;29;20135;-63
2021/10/04 06:07:35;;;;;;;9.25;4.80;;;;;;;;;;4934107;29;20524;-62
2021/10/04 06:10:01;;;;;;;9.35;5.07;;;;;;;;;;4933980;29;20032;-63
2021/10/04 06:12:27;;;;;;;9.15;4.60;;;;;;;;;;4934132;29;20042;-64
2021/10/04 06:14:54;;;;;;;7.97;4.32;;;;;;;;;;4931705;29;20075;-64
2021/10/04 06:17:21;;;;;;;13.80;4.93;;;;;;;;;;4934132;29;20110;-64
2021/10/04 06:19:47;;;;;;;12.77;4.63;;;;;;;;;;4935073;29;20028;-64
2021/10/04 06:22:13;;;;;;;9.82;4.35;;;;;;;;;;4933989;29;20036;-63
2021/10/04 06:24:39;;;;;;;12.70;4.65;;;;;;;;;;4933614;29;20032;-63
2021/10/04 06:27:05;;;;;;;9.43;4.70;;;;;;;;;;4925196;29;20082;-63
2021/10/04 06:29:32;;;;;;;9.07;4.82;;;;;;;;;;4927990;29;20031;-64
2021/10/04 06:31:58;;;;;;;10.95;4.30;;;;;;;;;;4933733;29;20553;-65
2021/10/04 06:34:24;;;;;;;8.88;4.35;;;;;;;;;;4934032;29;20734;-62
2021/10/04 06:36:50;;;;;;;10.52;5.10;;;;;;;;;;4932153;29;20483;-62
2021/10/04 06:39:16;;;;;;;16.17;6.45;;;;;;;;;;4933438;29;20047;-62
2021/10/04 06:41:45;;;;;;;7.10;4.15;;;;;;;;;;4917583;29;20067;-62
2021/10/04 06:44:11;;;;;;;8.45;4.30;;;;;;;;;;4919561;29;20028;-62
2021/10/04 06:46:38;;;;;;;9.85;4.45;;;;;;;;;;4930131;29;20114;-63
2021/10/04 06:49:04;;;;;;;10.95;4.70;;;;;;;;;;4925369;29;20039;-62
2021/10/04 06:51:31;;;;;;;9.02;4.28;;;;;;;;;;4940072;29;20027;-63
2021/10/04 06:53:57;;;;;;;9.77;4.40;;;;;;;;;;4952878;28;20039;-63
2021/10/04 06:56:23;;;;;;;7.72;5.20;;;;;;;;;;4944533;29;20028;-64
2021/10/04 06:58:49;;;;;;;9.88;4.60;;;;;;;;;;4933427;29;20040;-63
2021/10/04 07:01:16;;;;;;;9.07;4.47;;;;;;;;;;4933696;29;20020;-64
2021/10/04 07:03:42;;;;;;;10.05;4.53;;;;;;;;;;4933437;29;20122;-64
2021/10/04 07:06:08;;;;;;;9.20;4.47;;;;;;;;;;4934251;29;20039;-65
2021/10/04 07:08:35;;;;;;;10.07;4.00;;;;;;;;;;4932973;29;20038;-64
2021/10/04 07:11:03;;;;;;;7.97;4.60;;;;;;;;;;4933827;29;20094;-63
2021/10/04 07:13:29;;;;;;;9.05;4.15;;;;;;;;;;4930992;29;20035;-62
2021/10/04 07:15:55;;;;;;;9.80;5.05;;;;;;;;;;4933637;29;20454;-63
2021/10/04 07:18:21;;;;;;;8.95;4.30;;;;;;;;;;4934395;29;20028;-65
2021/10/04 07:20:47;;;;;;;8.70;4.35;;;;;;;;;;4934145;29;20063;-63
2021/10/04 07:23:13;;;;;;;7.22;4.53;;;;;;;;;;4933721;29;20032;-63
2021/10/04 07:25:40;;;;;;;8.38;4.43;;;;;;;;;;4934343;29;20494;-66
2021/10/04 07:28:07;;;;;;;11.10;4.50;;;;;;;;;;4934116;29;20855;-66
2021/10/04 07:30:34;;;;;;;9.60;4.32;;;;;;;;;;4933757;29;20159;-65
2021/10/04 07:33:00;;;;;;;8.48;3.97;;;;;;;;;;4933602;29;20032;-65
2021/10/04 07:35:27;;;;;;;8.63;4.63;;;;;;;;;;4933783;29;20027;-65
2021/10/04 07:37:53;;;;;;;7.47;4.32;;;;;;;;;;4933829;29;20400;-66
2021/10/04 07:40:19;;;;;;;8.95;4.05;;;;;;;;;;4933302;29;20090;-65
2021/10/04 07:42:45;;;;;;;10.50;4.60;;;;;;;;;;4934038;29;20110;-65
2021/10/04 07:45:12;;;;;;;9.25;4.43;;;;;;;;;;4934205;29;20078;-65
2021/10/04 07:47:38;;;;;;;13.15;4.72;;;;;;;;;;4933715;29;20043;-65
2021/10/04 07:50:05;;;;;;;10.70;4.97;;;;;;;;;;4933789;29;20110;-65
2021/10/04 07:52:31;;;;;;;8.45;5.18;;;;;;;;;;4933760;29;20403;-65
2021/10/04 07:54:59;;;;;;;11.00;5.18;;;;;;;;;;4933407;29;20387;-65
2021/10/04 07:57:25;;;;;;;9.82;4.50;;;;;;;;;;4933736;29;20027;-62
2021/10/04 07:59:51;;;;;;;13.30;4.50;;;;;;;;;;4916667;29;20400;-64
2021/10/04 08:02:18;;;;;;;9.93;5.32;;;;;;;;;;4934166;29;20058;-65
2021/10/04 08:04:44;;;;;;;8.93;4.57;;;;;;;;;;4933738;29;20032;-65
2021/10/04 08:07:11;;;;;;;8.93;4.35;;;;;;;;;;4937733;29;20514;-65
2021/10/04 08:09:43;;;;;;;9.85;5.32;;;;;;;;;;4937628;29;20035;-64
2021/10/04 08:12:09;;;;;;;8.40;4.47;;;;;;;;;;4937726;29;20075;-64
2021/10/04 08:14:36;;;;;;;10.18;4.40;;;;;;;;;;4937662;29;20027;-64
2021/10/04 08:17:03;;;;;;;11.45;4.82;;;;;;;;;;4937662;29;20035;-65
2021/10/04 08:19:29;;;;;;;9.85;4.80;;;;;;;;;;4937689;29;20039;-65
2021/10/04 08:21:55;;;;;;;11.73;5.00;;;;;;;;;;4937393;29;20135;-65
2021/10/04 08:24:22;;;;;;;8.77;4.22;;;;;;;;;;4936202;29;20036;-65
2021/10/04 08:26:48;;;;;;;11.25;4.97;;;;;;;;;;4936486;29;20566;-65
2021/10/04 08:29:14;;;;;;;12.10;4.75;;;;;;;;;;4936871;29;20028;-64
2021/10/04 08:31:40;;;;;;;8.13;4.57;;;;;;;;;;4936795;29;20028;-65
2021/10/04 08:34:07;;;;;;;8.15;4.85;;;;;;;;;;4936703;29;20056;-64
2021/10/04 08:36:34;;;;;;;11.93;4.80;;;;;;;;;;4936694;29;20079;-64
2021/10/04 08:39:00;;;;;;;10.85;5.03;;;;;;;;;;4936181;29;20052;-63
2021/10/04 08:41:26;;;;;;;8.73;4.80;;;;;;;;;;4936514;29;20024;-62
2021/10/04 08:43:53;;;;;;;12.35;5.32;;;;;;;;;;4936487;29;20731;-62
2021/10/04 08:46:21;;;;;;;10.40;5.05;;;;;;;;;;4936053;29;20046;-62
2021/10/04 08:48:47;;;;;;;9.00;4.78;;;;;;;;;;4936659;29;20016;-63
2021/10/04 08:51:14;;;;;;;7.30;4.60;;;;;;;;;;4936599;29;20483;-64
2021/10/04 08:53:40;;;;;;;11.02;5.50;;;;;;;;;;4936208;29;20035;-63
2021/10/04 08:56:06;;;;;;;9.98;5.03;;;;;;;;;;4936513;29;20059;-64
2021/10/04 08:58:32;;;;;;;11.27;4.38;;;;;;;;;;4936613;29;20032;-62
2021/10/04 09:01:01;;;;;;;8.95;4.85;;;;;;;;;;4936222;29;20035;-68
2021/10/04 09:03:41;;;;;;;10.45;4.45;;;;;;;;;;4935942;29;20035;-63
2021/10/04 09:06:07;;;;;;;9.63;4.82;;;;;;;;;;4936126;29;20035;-64
2021/10/04 09:08:49;;;;;;;10.73;5.18;;;;;;;;;;4936247;29;20051;-64
2021/10/04 09:11:27;;;;;;;8.38;5.18;;;;;;;;;;4936413;29;20022;-64
2021/10/04 09:13:53;;;;;;;8.32;4.68;;;;;;;;;;4936128;29;20112;-64
2021/10/04 09:16:19;;;;;;;12.50;5.43;;;;;;;;;;4936210;29;20032;-64
2021/10/04 09:18:45;;;;;;;13.10;5.45;;;;;;;;;;4935792;29;20106;-64
2021/10/04 09:21:11;;;;;;;12.50;4.88;;;;;;;;;;4936411;29;20036;-65
2021/10/04 09:23:52;;;;;;;15.60;5.10;;;;;;;;;;4936044;29;20033;-64
2021/10/04 09:26:29;;;;;;;10.82;5.40;;;;;;;;;;4935979;29;20039;-63
2021/10/04 09:28:58;;;;;;;7.43;4.47;;;;;;;;;;4936458;29;20032;-64
2021/10/04 09:31:27;;;;;;;9.10;4.88;;;;;;;;;;4935954;29;20798;-64
2021/10/04 09:34:08;;;;;;;8.15;4.75;;;;;;;;;;4936015;29;20103;-64
2021/10/04 09:36:39;;;;;;;10.48;5.05;;;;;;;;;;4936168;29;20042;-64
2021/10/04 09:39:17;;;;;;;16.13;4.70;;;;;;;;;;4935620;29;20047;-64
2021/10/04 09:42:02;;;;;;;9.65;4.55;;;;;;;;;;4934933;29;20114;-65
2021/10/04 09:44:41;;;;;;;8.80;4.50;;;;;;;;;;4935109;29;20028;-64
2021/10/04 09:47:11;;;;;;;11.63;4.88;;;;;;;;;;4934470;29;20050;-63
2021/10/04 09:50:01;;;;;;;13.70;5.30;;;;;;;;;;4934767;29;20155;-64
2021/10/04 09:52:33;;;;;;;9.77;5.40;;;;;;;;;;4856820;29;20049;-64
2021/10/04 09:54:59;;;;;;;;;;;;;;;;;;4857067;29;20034;-61
2021/10/04 09:57:25;;;;;;;10.70;5.03;;;;;;;;;;4856758;29;19919;-64
2021/10/04 09:59:51;;;;;;;10.13;5.57;;;;;;;;;;4857112;29;20104;-63
2021/10/04 10:02:18;;;;;;;11.20;6.35;;;;;;;;;;4856549;29;20040;-66
2021/10/04 10:04:46;;;;;;;12.60;5.80;;;;;;;;;;4856545;29;20042;-67
2021/10/04 10:07:13;;;;;;;13.18;5.97;;;;;;;;;;4856194;29;20045;-64
2021/10/04 10:09:40;;;;;;;10.20;5.65;;;;;;;;;;4856131;29;20041;-62
2021/10/04 10:12:06;;;;;;;12.38;6.03;;;;;;;;;;4855553;29;20033;-64
2021/10/04 10:14:58;;;;;;;13.15;5.55;;;;;;;;;;4856965;29;20504;-63
2021/10/04 10:17:27;;;;;;;9.57;5.05;;;;;;;;;;4855959;29;20041;-63
2021/10/04 10:19:56;;;;;;;10.55;5.95;;;;;;;;;;4855170;29;20193;-61
2021/10/04 10:22:24;;;;;;;12.45;5.40;;;;;;;;;;4854862;29;20116;-63
2021/10/04 10:24:50;;;;;;;12.63;5.38;;;;;;;;;;4853901;29;20128;-63
2021/10/04 10:27:17;;;;;;;9.32;5.10;;;;;;;;;;4853565;29;20429;-63
2021/10/04 10:29:43;;;;;;;13.00;5.47;;;;;;;;;;4898645;29;20491;-61
2021/10/04 10:32:11;;;;;;;11.30;5.32;;;;;;;;;;4930584;29;20032;-62
2021/10/04 10:34:39;;;;;;;12.85;5.45;;;;;;;;;;4934294;29;20154;-62
2021/10/04 10:37:15;;;;;;;10.68;4.80;;;;;;;;;;4928348;29;20451;-64
2021/10/04 10:39:41;;;;;;;11.98;4.93;;;;;;;;;;4933780;29;20047;-64
2021/10/04 10:42:13;;;;;;;11.05;5.30;;;;;;;;;;4934335;29;20051;-64
2021/10/04 10:44:55;;;;;;;8.02;4.75;;;;;;;;;;4932725;29;20479;-64
2021/10/04 10:47:36;;;;;;;10.18;5.25;;;;;;;;;;4929925;29;20486;-65
2021/10/04 10:50:11;;;;;;;7.63;5.13;;;;;;;;;;4931961;29;20038;-65
2021/10/04 10:52:37;;;;;;;9.20;5.35;;;;;;;;;;4932422;29;20265;-64
2021/10/04 10:55:23;;;;;;;7.95;5.35;;;;;;;;;;4932292;29;20336;-63
2021/10/04 10:57:50;;;;;;;12.70;5.50;;;;;;;;;;4932317;29;20026;-64
2021/10/04 11:00:19;;;;;;;14.20;5.70;;;;;;;;;;4932580;29;20027;-63
2021/10/04 11:03:04;;;;;;;10.00;5.78;;;;;;;;;;4932334;29;21378;-63
2021/10/04 11:05:38;;;;;;;8.35;5.18;;;;;;;;;;4932345;29;20035;-63
2021/10/04 11:08:06;;;;;;;9.98;5.15;;;;;;;;;;4932038;29;20459;-64
2021/10/04 11:10:32;;;;;;;7.10;4.90;;;;;;;;;;4930095;29;20024;-65
2021/10/04 11:13:10;;;;;;;10.60;5.47;;;;;;;;;;4933119;29;20035;-65
2021/10/04 11:15:37;;;;;;;8.45;5.68;;;;;;;;;;4932176;29;20032;-64
2021/10/04 11:18:03;;;;;;;9.35;4.78;;;;;;;;;;4929127;29;20030;-62
2021/10/04 11:20:29;;;;;;;11.10;5.10;;;;;;;;;;4933292;29;20028;-62
2021/10/04 11:23:05;;;;;;;9.77;4.60;;;;;;;;;;4933704;29;20036;-66
2021/10/04 11:25:40;;;;;;;10.80;5.93;;;;;;;;;;4933653;29;20435;-65
2021/10/04 11:28:06;;;;;;;6.50;4.57;;;;;;;;;;4932877;29;20051;-65
2021/10/04 11:30:51;;;;;;;11.77;5.15;;;;;;;;;;4933150;29;20020;-65
2021/10/04 11:33:17;;;;;;;10.48;4.97;;;;;;;;;;4934081;29;20063;-63
2021/10/04 11:36:00;;;;;;;9.20;5.15;;;;;;;;;;4933616;29;20398;-65
2021/10/04 11:38:26;;;;;;;9.02;5.25;;;;;;;;;;4932656;29;20115;-62
2021/10/04 11:40:53;;;;;;;14.57;5.72;;;;;;;;;;4932689;29;20035;-63
2021/10/04 11:43:20;;;;;;;10.48;4.93;;;;;;;;;;4928438;29;20040;-65
2021/10/04 11:45:49;;;;;;;13.23;5.20;;;;;;;;;;4931439;29;20031;-65
2021/10/04 11:48:27;;;;;;;9.45;5.57;;;;;;;;;;4932770;29;20038;-65
2021/10/04 11:50:55;;;;;;;11.05;4.93;;;;;;;;;;4930273;29;20048;-63
2021/10/04 11:53:21;;;;;;;11.18;5.68;;;;;;;;;;4931942;29;20114;-65
2021/10/04 11:55:59;;;;;;;9.93;5.05;;;;;;;;;;4932155;29;20170;-65
2021/10/04 11:58:25;;;;;;;10.55;5.07;;;;;;;;;;4930217;29;20038;-63
2021/10/04 12:00:52;;;;;;;9.93;5.45;;;;;;;;;;4931760;29;20039;-65
2021/10/04 12:03:25;;;;;;;8.45;4.80;;;;;;;;;;4930912;29;20114;-63
2021/10/04 12:05:52;;;;;;;8.27;5.22;;;;;;;;;;4926303;29;20175;-63
2021/10/04 12:08:19;;;;;;;9.90;5.35;;;;;;;;;;4928463;29;20031;-65
2021/10/04 12:10:59;;;;;;;11.80;5.35;;;;;;;;;;4931711;29;20023;-64
2021/10/04 12:13:25;;;;;;;10.85;5.25;;;;;;;;;;4930408;29;20047;-65
2021/10/04 12:15:53;;;;;;;10.32;5.35;;;;;;;;;;4931629;29;20028;-65
2021/10/04 12:18:22;;;;;;;9.60;5.15;;;;;;;;;;4933119;29;20087;-65
2021/10/04 12:20:49;;;;;;;8.30;5.32;;;;;;;;;;4932536;29;20067;-65
2021/10/04 12:23:17;;;;;;;10.52;5.18;;;;;;;;;;4932325;29;20046;-64
2021/10/04 12:25:43;;;;;;;9.85;5.00;;;;;;;;;;4931178;29;20510;-65
2021/10/04 12:28:11;;;;;;;13.07;5.70;;;;;;;;;;4931735;29;20415;-64
2021/10/04 12:30:42;;;;;;;11.90;5.40;;;;;;;;;;4931122;29;20111;-66
2021/10/04 12:33:08;;;;;;;11.77;5.57;;;;;;;;;;4931754;29;20107;-66
2021/10/04 12:35:34;;;;;;;11.15;5.25;;;;;;;;;;4932153;29;20043;-64
2021/10/04 12:38:08;;;;;;;11.70;5.00;;;;;;;;;;4927906;29;20388;-65
2021/10/04 12:40:40;;;;;;;10.40;5.43;;;;;;;;;;4932193;29;20055;-65
2021/10/04 12:43:07;;;;;;;11.33;4.93;;;;;;;;;;4932513;29;20032;-66
2021/10/04 12:45:35;;;;;;;11.13;5.22;;;;;;;;;;4932219;29;20502;-66
2021/10/04 12:48:03;;;;;;;10.15;4.80;;;;;;;;;;4915559;29;20044;-66
2021/10/04 12:50:33;;;;;;;8.65;5.00;;;;;;;;;;4932959;29;20061;-66
2021/10/04 12:53:14;;;;;;;11.00;5.18;;;;;;;;;;4934574;29;20046;-65
2021/10/04 12:55:44;;;;;;;9.30;5.55;;;;;;;;;;4935998;29;20095;-65
2021/10/04 12:58:13;;;;;;;10.15;5.03;;;;;;;;;;4936773;29;20027;-65
2021/10/04 13:00:40;;;;;;;9.98;5.18;;;;;;;;;;4936756;29;20547;-65
2021/10/04 13:03:06;;;;;;;14.65;5.22;;;;;;;;;;4936083;29;20066;-64
2021/10/04 13:05:33;;;;;;;11.60;6.60;;;;;;;;;;4936178;29;20028;-66
2021/10/04 13:07:59;;;;;;;11.43;5.50;;;;;;;;;;4935883;29;20039;-66
2021/10/04 13:10:25;;;;;;;11.73;6.22;;;;;;;;;;4935652;29;20435;-66
2021/10/04 13:12:53;;;;;;;10.02;6.07;;;;;;;;;;4918345;29;20099;-65
2021/10/04 13:15:19;;;;;;;16.60;6.70;;;;;;;;;;4936066;29;20118;-65
2021/10/04 13:17:45;;;;;;;9.80;5.25;;;;;;;;;;4935923;29;20428;-63
2021/10/04 13:20:11;;;;;;;9.95;5.70;;;;;;;;;;4936153;29;20054;-65
2021/10/04 13:22:38;;;;;;;14.15;6.03;;;;;;;;;;4935265;29;20032;-65
2021/10/04 13:25:05;;;;;;;7.90;5.10;;;;;;;;;;4935951;29;20031;-66
2021/10/04 13:27:31;;;;;;;11.75;5.75;;;;;;;;;;4935705;29;20046;-66
2021/10/04 13:29:57;;;;;;;11.00;5.88;;;;;;;;;;4935736;29;20035;-66
2021/10/04 13:32:23;;;;;;;11.88;5.68;;;;;;;;;;4935491;29;20115;-66
2021/10/04 13:34:49;;;;;;;9.93;5.85;;;;;;;;;;4935753;29;20032;-65
2021/10/04 13:37:18;;;;;;;11.90;6.38;;;;;;;;;;4935797;29;20024;-64
2021/10/04 13:39:44;;;;;;;9.68;5.53;;;;;;;;;;4917667;29;20399;-64
2021/10/04 13:42:10;;;;;;;11.40;5.57;;;;;;;;;;4935693;29;20028;-65
2021/10/04 13:44:36;;;;;;;11.70;6.35;;;;;;;;;;4934875;29;20396;-65
2021/10/04 13:47:03;;;;;;;7.93;5.20;;;;;;;;;;4935352;29;20104;-65
2021/10/04 13:49:29;;;;;;;12.65;6.20;;;;;;;;;;4935690;29;20034;-64
2021/10/04 13:51:56;;;;;;;13.25;6.05;;;;;;;;;;4935350;29;20090;-65
2021/10/04 13:54:22;;;;;;;11.85;6.05;;;;;;;;;;4935141;29;20539;-66
2021/10/04 13:56:48;;;;;;;13.00;6.45;;;;;;;;;;4935428;29;20039;-64
2021/10/04 13:59:14;;;;;;;10.88;5.82;;;;;;;;;;4935640;29;20119;-63
2021/10/04 14:01:41;;;;;;;11.93;6.05;;;;;;;;;;4935349;29;20027;-68
2021/10/04 14:04:08;;;;;;;8.75;5.90;;;;;;;;;;4935229;29;20028;-65
2021/10/04 14:06:34;;;;;;;12.48;5.72;;;;;;;;;;4935570;29;20054;-65
2021/10/04 14:09:00;;;;;;;10.23;5.60;;;;;;;;;;4934999;29;20164;-66
2021/10/04 14:11:26;;;;;;;16.48;6.28;;;;;;;;;;4934899;29;20031;-65
2021/10/04 14:13:52;;;;;;;11.27;6.20;;;;;;;;;;4935190;29;20563;-65
2021/10/04 14:16:18;;;;;;;12.90;5.40;;;;;;;;;;4935108;29;20035;-65
2021/10/04 14:18:45;;;;;;;9.02;5.47;;;;;;;;;;4934757;29;20035;-66
2021/10/04 14:21:11;;;;;;;13.30;6.72;;;;;;;;;;4934263;29;20159;-65
2021/10/04 14:23:37;;;;;;;11.07;5.80;;;;;;;;;;4935299;29;20028;-65
2021/10/04 14:26:03;;;;;;;12.32;5.80;;;;;;;;;;4934844;29;20102;-64
2021/10/04 14:28:29;;;;;;;9.27;5.53;;;;;;;;;;4934886;29;20051;-64
2021/10/04 14:30:56;;;;;;;10.35;5.25;;;;;;;;;;4934711;29;20031;-67
2021/10/04 14:33:25;;;;;;;9.73;5.60;;;;;;;;;;4935142;29;20491;-65
2021/10/04 14:35:52;;;;;;;10.85;5.38;;;;;;;;;;4934986;29;20043;-68
2021/10/04 14:38:18;;;;;;;11.73;5.30;;;;;;;;;;4932794;29;20039;-65
2021/10/04 14:40:46;;;;;;;11.38;5.57;;;;;;;;;;4932130;29;20040;-65
2021/10/04 14:43:12;;;;;;;10.13;5.88;;;;;;;;;;4933374;29;20368;-66
2021/10/04 14:45:38;;;;;;;11.73;5.57;;;;;;;;;;4933324;29;20028;-64
2021/10/04 14:48:04;;;;;;;11.23;5.55;;;;;;;;;;4933706;29;20043;-64
2021/10/04 14:50:31;;;;;;;9.50;5.65;;;;;;;;;;4933564;29;20055;-66
2021/10/04 14:52:57;;;;;;;11.43;5.82;;;;;;;;;;4933829;29;20055;-65
2021/10/04 14:55:23;;;;;;;8.88;5.57;;;;;;;;;;4933597;29;20027;-65
2021/10/04 14:57:49;;;;;;;10.23;5.20;;;;;;;;;;4932657;29;20102;-64
2021/10/04 15:00:15;;;;;;;9.50;5.30;;;;;;;;;;4932472;29;20054;-65
2021/10/04 15:02:42;;;;;;;10.55;5.45;;;;;;;;;;4933397;29;20039;-63
2021/10/04 15:05:10;;;;;;;13.60;5.57;;;;;;;;;;4934747;29;20039;-66
2021/10/04 15:07:40;;;;;;;10.98;5.57;;;;;;;;;;4934036;29;20131;-66
2021/10/04 15:10:07;;;;;;;13.23;5.28;;;;;;;;;;4934263;29;20028;-66
2021/10/04 15:12:33;;;;;;;10.45;5.47;;;;;;;;;;4935047;29;20067;-65
2021/10/04 15:15:03;;;;;;;14.60;6.00;;;;;;;;;;4933795;29;20030;-66
2021/10/04 15:17:32;;;;;;;11.82;5.60;;;;;;;;;;4934537;29;20070;-66
2021/10/04 15:19:59;;;;;;;12.43;5.85;;;;;;;;;;4935004;29;20036;-65
2021/10/04 15:22:25;;;;;;;10.10;5.60;;;;;;;;;;4934492;29;20040;-65
2021/10/04 15:24:51;;;;;;;13.90;5.95;;;;;;;;;;4933337;29;20028;-67
2021/10/04 15:27:17;;;;;;;14.10;5.43;;;;;;;;;;4929879;29;20048;-66
2021/10/04 15:29:43;;;;;;;12.32;5.78;;;;;;;;;;4934487;29;20032;-65
2021/10/04 15:32:09;;;;;;;9.38;5.30;;;;;;;;;;4934444;29;20035;-66
2021/10/04 15:34:35;;;;;;;11.18;5.25;;;;;;;;;;4934283;29;20031;-66
2021/10/04 15:37:01;;;;;;;11.15;5.55;;;;;;;;;;4934353;29;20035;-69
2021/10/04 15:39:27;;;;;;;13.45;6.00;;;;;;;;;;4933818;29;20051;-65
2021/10/04 15:41:53;;;;;;;11.30;5.82;;;;;;;;;;4933786;29;20040;-65
2021/10/04 15:44:20;;;;;;;11.38;5.88;;;;;;;;;;4933944;29;20036;-65
2021/10/04 15:46:46;;;;;;;12.20;5.50;;;;;;;;;;4933729;29;20039;-65
2021/10/04 15:49:12;;;;;;;13.15;5.95;;;;;;;;;;4934127;29;20805;-66
2021/10/04 15:51:41;;;;;;;9.20;5.80;;;;;;;;;;4934009;29;20039;-63
2021/10/04 15:59:20;;;;;;;13.77;6.88;;;;;;;;;;5383439;23;20079;-64
2021/10/04 16:01:46;;;;;;;16.90;8.60;;;;;;;;;;4932899;29;20071;-64
2021/10/04 16:04:12;;;;;;;18.80;10.90;;;;;;;;;;4933424;29;20036;-63
2021/10/04 16:06:39;;;;;;;32.88;15.82;;;;;;;;;;4933423;29;20027;-63
2021/10/04 16:09:05;;;;;;;34.47;15.93;;;;;;;;;;4933749;29;20115;-63
2021/10/04 16:11:31;;;;;;;25.48;12.20;;;;;;;;;;4933682;29;20028;-64
2021/10/04 16:14:01;;;;;;;18.80;10.00;;;;;;;;;;4934034;29;20039;-64
2021/10/04 16:16:27;;;;;;;18.08;8.75;;;;;;;;;;4933006;29;20035;-62
2021/10/04 16:18:54;;;;;;;13.80;8.02;;;;;;;;;;4928825;29;20032;-62
2021/10/04 16:21:20;;;;;;;14.48;7.93;;;;;;;;;;4933920;29;20054;-64
2021/10/04 16:23:46;;;;;;;17.10;8.05;;;;;;;;;;4933807;29;20028;-65
2021/10/04 16:26:12;;;;;;;18.48;8.20;;;;;;;;;;4932840;29;20027;-63
2021/10/04 16:28:39;;;;;;;14.20;7.45;;;;;;;;;;4935090;29;20111;-64
2021/10/04 16:31:05;;;;;;;14.73;8.38;;;;;;;;;;4937054;29;20026;-63
2021/10/04 16:33:31;;;;;;;15.68;7.70;;;;;;;;;;4936868;29;20028;-65
2021/10/04 16:35:58;;;;;;;17.48;8.13;;;;;;;;;;4937168;29;20495;-64
2021/10/04 16:38:24;;;;;;;16.13;7.97;;;;;;;;;;4937240;29;20146;-64
2021/10/04 16:40:50;;;;;;;13.73;7.07;;;;;;;;;;4936089;29;20031;-63
2021/10/04 16:43:16;;;;;;;17.65;7.00;;;;;;;;;;4936431;29;20028;-64
2021/10/04 16:45:42;;;;;;;12.90;6.05;;;;;;;;;;4935759;29;20622;-65
2021/10/04 16:48:08;;;;;;;12.25;6.80;;;;;;;;;;4935943;29;20056;-63
2021/10/04 16:50:35;;;;;;;10.43;6.07;;;;;;;;;;4936582;29;20052;-63
2021/10/04 16:53:01;;;;;;;9.18;5.93;;;;;;;;;;4936582;29;20043;-66
2021/10/04 16:55:29;;;;;;;9.85;5.60;;;;;;;;;;4936743;29;20030;-64
2021/10/04 16:57:55;;;;;;;12.38;5.72;;;;;;;;;;4936888;29;20027;-64
2021/10/04 17:00:21;;;;;;;11.52;5.43;;;;;;;;;;4921800;29;20063;-65
2021/10/04 17:02:47;;;;;;;11.30;4.93;;;;;;;;;;4900737;29;20059;-63
2021/10/04 17:05:14;;;;;;;11.05;5.35;;;;;;;;;;4917552;29;20028;-63
2021/10/04 17:07:40;;;;;;;14.73;5.25;;;;;;;;;;4917626;29;20036;-62
2021/10/04 17:10:07;;;;;;;11.45;5.72;;;;;;;;;;4917386;29;20440;-63
2021/10/04 17:12:33;;;;;;;15.45;5.43;;;;;;;;;;4917069;29;20092;-62
2021/10/04 17:14:59;;;;;;;13.25;5.55;;;;;;;;;;4917476;29;20024;-64
2021/10/04 17:17:26;;;;;;;12.07;5.75;;;;;;;;;;4917172;29;20059;-63
2021/10/04 17:19:52;;;;;;;13.70;5.50;;;;;;;;;;4917096;29;20025;-63
2021/10/04 17:22:18;;;;;;;10.60;5.70;;;;;;;;;;4917208;29;20043;-64
2021/10/04 17:24:44;;;;;;;17.48;5.85;;;;;;;;;;4917341;29;20036;-64
2021/10/04 17:27:10;;;;;;;14.68;5.75;;;;;;;;;;4916581;29;20044;-64
2021/10/04 17:29:36;;;;;;;12.57;5.47;;;;;;;;;;4916525;29;20036;-63
2021/10/04 17:32:03;;;;;;;11.77;6.25;;;;;;;;;;4916320;29;20656;-65
2021/10/04 17:34:29;;;;;;;13.25;5.90;;;;;;;;;;4916466;29;20031;-64
2021/10/04 17:36:57;;;;;;;17.80;6.78;;;;;;;;;;4916573;29;20028;-62
2021/10/04 17:39:23;;;;;;;20.75;7.88;;;;;;;;;;4916773;29;20398;-63
2021/10/04 17:41:49;;;;;;;17.23;7.38;;;;;;;;;;4916853;29;20024;-64
2021/10/04 17:44:15;;;;;;;18.10;7.65;;;;;;;;;;4916812;29;20091;-63
2021/10/04 17:46:42;;;;;;;16.70;7.93;;;;;;;;;;4916742;29;20225;-64
2021/10/04 17:49:10;;;;;;;21.35;7.90;;;;;;;;;;4916765;29;20466;-63
2021/10/04 17:51:36;;;;;;;17.95;7.07;;;;;;;;;;4916533;29;20047;-64
2021/10/04 17:54:02;;;;;;;16.30;6.72;;;;;;;;;;4916376;29;20131;-66
2021/10/04 17:56:29;;;;;;;19.50;6.72;;;;;;;;;;4915953;29;20527;-66
2021/10/04 17:58:55;;;;;;;13.80;6.80;;;;;;;;;;4913579;29;20052;-66
2021/10/04 18:01:21;;;;;;;15.85;7.10;;;;;;;;;;4914816;29;20056;-64
2021/10/04 18:03:47;;;;;;;13.77;6.72;;;;;;;;;;4915398;29;20016;-64
2021/10/04 18:06:13;;;;;;;15.45;6.78;;;;;;;;;;4915310;29;20040;-63
2021/10/04 18:08:39;;;;;;;19.65;6.43;;;;;;;;;;4916147;29;20032;-63
2021/10/04 18:11:15;;;;;;;15.10;7.25;;;;;;;;;;4916259;29;20028;-65
2021/10/04 18:13:41;;;;;;;14.00;7.07;;;;;;;;;;4916014;29;20044;-67
2021/10/04 18:16:07;;;;;;;17.38;7.32;;;;;;;;;;4916340;29;20028;-62
2021/10/04 18:18:33;;;;;;;15.82;7.38;;;;;;;;;;4916375;29;20047;-63
2021/10/04 18:20:59;;;;;;;18.30;7.75;;;;;;;;;;4915843;29;20024;-64
2021/10/04 18:23:25;;;;;;;18.15;7.60;;;;;;;;;;4915269;29;20110;-67
2021/10/04 18:25:52;;;;;;;16.65;7.47;;;;;;;;;;4915357;29;20100;-63
2021/10/04 18:28:19;;;;;;;14.32;7.50;;;;;;;;;;4914860;29;20052;-63
2021/10/04 18:30:45;;;;;;;15.75;7.60;;;;;;;;;;4915161;29;20043;-62
2021/10/04 18:33:13;;;;;;;19.92;7.75;;;;;;;;;;4915809;29;20444;-63
2021/10/04 18:35:39;;;;;;;14.48;7.45;;;;;;;;;;4917758;29;20392;-62
2021/10/04 18:38:05;;;;;;;17.02;7.53;;;;;;;;;;4915488;29;20083;-62
2021/10/04 18:40:32;;;;;;;20.15;7.60;;;;;;;;;;4911498;29;20180;-63
2021/10/04 18:42:58;;;;;;;15.63;7.32;;;;;;;;;;4914364;29;20032;-64
2021/10/04 18:45:25;;;;;;;16.52;7.40;;;;;;;;;;4915317;29;20032;-64
2021/10/04 18:47:51;;;;;;;18.20;7.43;;;;;;;;;;4914809;29;20036;-65
2021/10/04 18:50:25;;;;;;;13.10;7.32;;;;;;;;;;4914560;29;20043;-64
2021/10/04 18:52:58;;;;;;;14.73;7.50;;;;;;;;;;4915266;29;20028;-65
2021/10/04 18:55:25;;;;;;;13.10;7.05;;;;;;;;;;4915128;29;20032;-65
2021/10/04 18:57:52;;;;;;;16.67;7.38;;;;;;;;;;4915245;29;20039;-64
2021/10/04 19:00:19;;;;;;;16.08;7.20;;;;;;;;;;4914414;29;20078;-64
2021/10/04 19:02:45;;;;;;;17.25;7.30;;;;;;;;;;4915120;29;20531;-64
2021/10/04 19:05:11;;;;;;;15.57;7.00;;;;;;;;;;4914929;29;20524;-65
2021/10/04 19:07:38;;;;;;;15.70;7.03;;;;;;;;;;4915187;29;20067;-66
2021/10/04 19:10:04;;;;;;;15.88;7.80;;;;;;;;;;4914900;29;20036;-65
2021/10/04 19:12:31;;;;;;;14.02;7.45;;;;;;;;;;4915129;29;20092;-66
2021/10/04 19:14:57;;;;;;;17.42;7.35;;;;;;;;;;4914995;29;20022;-64
2021/10/04 19:17:26;;;;;;;14.77;7.28;;;;;;;;;;4913914;29;20409;-65
2021/10/04 19:19:52;;;;;;;16.83;7.20;;;;;;;;;;4914652;29;20031;-65
2021/10/04 19:22:18;;;;;;;14.00;7.28;;;;;;;;;;4915048;29;20074;-65
2021/10/04 19:24:44;;;;;;;17.15;7.00;;;;;;;;;;4914817;29;20036;-64
2021/10/04 19:27:19;;;;;;;15.80;7.60;;;;;;;;;;4913731;29;20044;-66
2021/10/04 19:29:46;;;;;;;17.60;7.43;;;;;;;;;;4909848;29;20036;-67
2021/10/04 19:32:12;;;;;;;14.15;7.10;;;;;;;;;;4914694;29;20036;-64
2021/10/04 19:34:39;;;;;;;13.43;7.10;;;;;;;;;;4914208;29;20039;-65
2021/10/04 19:37:05;;;;;;;13.43;6.65;;;;;;;;;;4913843;29;20379;-63
2021/10/04 19:39:31;;;;;;;18.48;6.90;;;;;;;;;;4914424;29;20032;-65
2021/10/04 19:41:57;;;;;;;13.88;6.78;;;;;;;;;;4914255;29;20035;-67
2021/10/04 19:44:24;;;;;;;12.35;6.43;;;;;;;;;;4913906;29;20032;-64
2021/10/04 19:46:51;;;;;;;11.50;6.18;;;;;;;;;;4913425;29;20047;-64
2021/10/04 19:49:17;;;;;;;12.23;6.32;;;;;;;;;;4914527;29;20032;-63
2021/10/04 19:51:45;;;;;;;12.88;6.05;;;;;;;;;;4913712;29;20111;-63
2021/10/04 19:54:17;;;;;;;13.00;6.15;;;;;;;;;;4913100;29;20531;-65
2021/10/04 19:56:43;;;;;;;14.27;6.15;;;;;;;;;;4914260;29;20035;-66
2021/10/04 19:59:09;;;;;;;16.92;6.30;;;;;;;;;;4912590;29;20816;-64
2021/10/04 20:01:38;;;;;;;17.27;6.55;;;;;;;;;;4915042;29;20179;-64
2021/10/04 20:04:04;;;;;;;10.60;5.78;;;;;;;;;;4917736;29;20047;-68
2021/10/04 20:06:30;;;;;;;12.75;6.30;;;;;;;;;;4916080;29;20506;-65
2021/10/04 20:08:56;;;;;;;12.23;6.32;;;;;;;;;;4918479;29;20496;-64
2021/10/04 20:11:22;;;;;;;10.75;6.05;;;;;;;;;;4917983;29;20020;-66
2021/10/04 20:13:48;;;;;;;12.52;6.03;;;;;;;;;;4918048;29;20511;-64
2021/10/04 20:16:14;;;;;;;14.30;5.75;;;;;;;;;;4917935;29;20032;-66
2021/10/04 20:18:40;;;;;;;11.38;5.60;;;;;;;;;;4917894;29;20055;-65